Time;durP1;ratioP1;P1;durP2;ratioP2;P2;SDS_P1;SDS_P2;PMS_P1;PMS_P2;Temp;Humidity;BMP_temperature;BMP_pressure;BME280_temperature;BME280_humidity;BME280_pressure;Samples;Min_cycle;Max_cycle;Signal;HPM_P1;HPM_P2
2021/11/07 00:01:57;;;;;;;34.13;28.77;;;6.90;1.00;8.00;101217.00;;;;4946225;29;20456;-79
2021/11/07 00:04:36;;;;;;;35.93;29.27;;;7.00;1.00;8.10;101237.00;;;;4942580;29;20828;-79
2021/11/07 00:07:17;;;;;;;34.63;29.60;;;6.90;1.00;8.10;101172.00;;;;4945420;29;20450;-80
2021/11/07 00:09:57;;;;;;;37.37;30.30;;;6.90;1.00;8.10;101203.00;;;;4930892;29;20481;-79
2021/11/07 00:12:28;;;;;;;34.10;28.97;;;7.00;1.00;8.10;101163.00;;;;4947813;29;20484;-80
2021/11/07 00:14:57;;;;;;;35.63;29.40;;;7.00;1.00;8.00;101134.00;;;;4946734;29;20481;-80
2021/11/07 00:17:29;;;;;;;37.53;31.20;;;6.90;1.00;8.00;101175.00;;;;4948424;29;20457;-79
2021/11/07 00:20:02;;;;;;;36.40;30.23;;;6.90;1.00;8.00;101163.00;;;;4941836;29;20487;-80
2021/11/07 00:22:37;;;;;;;35.33;27.37;;;6.90;1.00;8.00;101158.00;;;;4948422;29;20460;-79
2021/11/07 00:25:16;;;;;;;35.80;28.20;;;6.90;1.00;8.00;101172.00;;;;4946697;29;20481;-80
2021/11/07 00:27:48;;;;;;;35.97;30.40;;;6.90;1.00;8.00;101164.00;;;;4951446;29;20575;-79
2021/11/07 00:30:19;;;;;;;35.87;28.93;;;6.90;1.00;8.10;101163.00;;;;4943855;29;20481;-79
2021/11/07 00:32:57;;;;;;;36.77;30.10;;;6.90;1.00;8.00;101143.00;;;;4944147;29;20456;-79
2021/11/07 00:38:15;;;;;;;37.57;28.07;;;6.90;1.00;7.90;101160.00;;;;4944490;29;20602;-78
2021/11/07 00:40:50;;;;;;;33.17;27.17;;;7.00;1.00;8.10;101122.00;;;;4943591;29;20476;-79
2021/11/07 00:43:24;;;;;;;35.23;27.80;;;6.90;1.00;8.00;101121.00;;;;4939650;29;20452;-78
2021/11/07 00:46:05;;;;;;;31.00;26.47;;;6.90;1.00;7.90;101137.00;;;;4944034;29;20461;-80
2021/11/07 00:48:40;;;;;;;35.30;27.87;;;6.90;1.00;8.00;101147.00;;;;4959417;29;20455;-80
2021/11/07 00:51:17;;;;;;;32.90;28.30;;;6.90;1.00;7.90;101124.00;;;;4946859;29;20562;-79
2021/11/07 00:53:57;;;;;;;33.13;27.37;;;6.90;1.00;7.90;101137.00;;;;4943538;28;20464;-80
2021/11/07 00:56:34;;;;;;;37.00;29.27;;;6.90;1.00;8.10;101146.00;;;;4931852;29;20477;-80
2021/11/07 00:59:09;;;;;;;30.70;26.23;;;6.90;1.00;7.90;101107.00;;;;4936736;29;20467;-80
2021/11/07 01:01:44;;;;;;;31.87;26.27;;;7.00;1.00;7.90;101057.00;;;;4935982;29;20467;-79
2021/11/07 01:04:14;;;;;;;32.03;27.33;;;6.90;1.00;7.90;101116.00;;;;4944316;29;20472;-81
2021/11/07 01:06:44;;;;;;;35.27;28.03;;;6.90;1.00;8.00;101028.00;;;;4933872;29;20462;-77
2021/11/07 01:09:15;;;;;;;30.97;26.10;;;6.80;1.00;7.90;101086.00;;;;4948850;29;20457;-80
2021/11/07 01:11:45;;;;;;;33.03;27.17;;;6.90;1.00;7.90;101070.00;;;;4943289;29;20466;-78
2021/11/07 01:14:15;;;;;;;35.60;28.70;;;6.80;1.00;7.90;101104.00;;;;4943798;29;20467;-79
2021/11/07 01:16:43;;;;;;;34.33;28.60;;;6.80;1.00;7.90;101024.00;;;;4948646;29;20472;-79
2021/11/07 01:19:12;;;;;;;35.80;28.77;;;6.90;1.00;7.90;101054.00;;;;4930323;29;20461;-79
2021/11/07 01:21:43;;;;;;;31.80;27.50;;;6.90;1.00;7.90;101078.00;;;;4945807;29;20956;-79
2021/11/07 01:24:16;;;;;;;32.87;27.40;;;6.90;1.00;7.90;101083.00;;;;4940667;29;20475;-79
2021/11/07 01:26:48;;;;;;;36.60;27.57;;;6.90;1.00;7.80;101071.00;;;;4947111;29;20444;-78
2021/11/07 01:29:20;;;;;;;39.17;29.70;;;6.80;1.00;7.90;101089.00;;;;4942869;29;20531;-78
2021/11/07 01:31:50;;;;;;;35.73;28.97;;;6.80;1.00;7.90;101088.00;;;;4942052;29;20456;-77
2021/11/07 01:34:25;;;;;;;37.90;31.40;;;6.80;1.00;8.00;101099.00;;;;4942352;29;20559;-78
2021/11/07 01:36:58;;;;;;;41.40;30.20;;;6.90;1.00;8.00;101086.00;;;;4946581;29;20513;-78
2021/11/07 01:39:38;;;;;;;41.80;32.43;;;6.80;1.00;7.80;101065.00;;;;4946713;29;20469;-79
2021/11/07 01:42:11;;;;;;;42.13;31.10;;;6.90;1.00;8.00;100985.00;;;;4956676;29;20492;-78
2021/11/07 01:44:46;;;;;;;42.17;31.67;;;7.00;1.00;7.80;101059.00;;;;4946280;29;20481;-79
2021/11/07 01:47:15;;;;;;;37.23;25.97;;;6.80;1.00;7.80;101062.00;;;;4943693;29;20495;-78
2021/11/07 01:49:46;;;;;;;35.83;28.13;;;6.80;1.00;7.70;101081.00;;;;4942589;29;20472;-78
2021/11/07 01:52:16;;;;;;;38.07;29.87;;;6.80;1.00;7.70;101106.00;;;;4942089;29;20481;-78
2021/11/07 01:54:51;;;;;;;41.17;31.07;;;6.80;1.00;7.70;101091.00;;;;4942946;29;20485;-78
2021/11/07 01:57:23;;;;;;;38.10;29.80;;;6.70;1.00;7.70;101086.00;;;;4950930;29;20470;-81
2021/11/07 01:59:55;;;;;;;39.50;31.17;;;6.70;1.00;7.80;101060.00;;;;4947585;29;20483;-82
2021/11/07 02:02:27;;;;;;;41.20;30.20;;;6.90;1.00;7.80;100900.00;;;;4955368;29;20444;-79
2021/11/07 02:04:55;;;;;;;39.30;30.60;;;6.80;1.00;7.80;101017.00;;;;4937790;29;20453;-81
2021/11/07 02:07:24;;;;;;;36.70;30.37;;;6.80;1.00;7.80;101060.00;;;;4959581;29;20432;-81
2021/11/07 02:09:53;;;;;;;38.77;28.57;;;6.80;1.00;7.70;101058.00;;;;4961520;29;20516;-83
2021/11/07 02:12:23;;;;;;;36.60;28.97;;;6.80;1.00;7.70;101050.00;;;;4964062;29;20488;-79
2021/11/07 02:14:51;;;;;;;34.93;28.27;;;6.70;1.00;7.70;100951.00;;;;4972265;28;20444;-80
2021/11/07 02:17:19;;;;;;;36.77;29.20;;;6.70;1.00;7.60;101061.00;;;;4968269;28;20484;-80
2021/11/07 02:19:49;;;;;;;38.10;30.87;;;6.80;1.00;7.60;101062.00;;;;4949144;29;20575;-78
2021/11/07 02:22:19;;;;;;;31.20;27.50;;;6.70;1.00;7.50;101038.00;;;;4949424;29;20463;-79
2021/11/07 02:24:47;;;;;;;34.83;29.10;;;6.70;1.00;7.60;101055.00;;;;4932103;29;20468;-78
2021/11/07 02:27:16;;;;;;;32.13;28.27;;;6.60;1.00;7.60;101049.00;;;;4944055;29;20456;-77
2021/11/07 02:29:44;;;;;;;32.07;28.20;;;6.60;1.00;7.60;101068.00;;;;4942049;29;20982;-78
2021/11/07 02:32:13;;;;;;;32.90;28.80;;;6.70;1.00;7.50;101058.00;;;;4940794;29;20488;-79
2021/11/07 02:34:41;;;;;;;33.17;27.97;;;6.70;1.00;7.60;101016.00;;;;4941660;29;20492;-78
2021/11/07 02:37:11;;;;;;;34.13;27.77;;;6.60;1.00;7.60;101018.00;;;;4924451;29;20576;-77
2021/11/07 02:39:42;;;;;;;34.83;29.10;;;6.60;1.00;7.60;101022.00;;;;4925019;29;21037;-77
2021/11/07 02:42:11;;;;;;;35.90;28.53;;;6.60;1.00;7.50;100989.00;;;;4945488;29;20444;-77
2021/11/07 02:44:45;;;;;;;38.00;30.53;;;6.60;1.00;7.50;100976.00;;;;4942900;29;20576;-80
2021/11/07 02:47:17;;;;;;;33.83;27.83;;;6.60;1.00;7.50;100956.00;;;;4942209;29;20491;-81
2021/11/07 02:49:46;;;;;;;36.23;29.90;;;6.60;1.00;7.40;100980.00;;;;4942029;29;20480;-78
2021/11/07 02:52:15;;;;;;;33.20;28.00;;;6.60;1.00;7.40;100937.00;;;;4942396;29;20457;-80
2021/11/07 02:54:45;;;;;;;35.47;28.77;;;6.50;1.00;7.40;100932.00;;;;4919434;29;20457;-79
2021/11/07 02:57:19;;;;;;;34.80;29.93;;;6.50;1.00;7.40;100985.00;;;;4943160;29;20525;-80
2021/11/07 02:59:53;;;;;;;32.77;28.27;;;6.50;1.00;7.50;100993.00;;;;4939390;29;21014;-78
2021/11/07 03:02:22;;;;;;;34.17;28.37;;;6.50;1.00;7.50;100987.00;;;;4938201;29;21029;-78
2021/11/07 03:04:50;;;;;;;32.67;28.40;;;6.50;1.00;7.50;100944.00;;;;4937241;29;20468;-81
2021/11/07 03:07:19;;;;;;;32.43;26.87;;;6.50;1.00;7.40;100908.00;;;;4938307;29;20466;-80
2021/11/07 03:09:49;;;;;;;31.50;26.83;;;6.50;1.00;7.50;100978.00;;;;4936676;29;20492;-78
2021/11/07 03:12:18;;;;;;;34.67;28.17;;;6.50;1.00;7.30;100958.00;;;;4939006;29;21087;-78
2021/11/07 03:14:51;;;;;;;32.50;27.70;;;6.50;1.00;7.40;100967.00;;;;4924238;29;21012;-81
2021/11/07 03:17:22;;;;;;;35.80;27.27;;;6.60;1.00;7.30;100968.00;;;;4944439;29;20495;-79
2021/11/07 03:19:53;;;;;;;30.93;27.40;;;6.50;1.00;7.40;100964.00;;;;4942667;29;20572;-81
2021/11/07 03:22:27;;;;;;;30.07;26.50;;;6.50;1.00;7.40;100954.00;;;;4944700;29;20462;-78
2021/11/07 03:24:57;;;;;;;28.10;24.30;;;6.40;1.00;7.30;100949.00;;;;4943310;29;20464;-79
2021/11/07 03:27:32;;;;;;;31.83;27.97;;;6.40;1.00;7.20;100946.00;;;;4947938;29;20453;-83
2021/11/07 03:30:06;;;;;;;33.57;27.30;;;6.40;1.00;7.30;100953.00;;;;4962177;29;20535;-82
2021/11/07 03:32:38;;;;;;;32.63;28.00;;;6.40;1.00;7.40;100939.00;;;;4946550;29;20468;-77
2021/11/07 03:35:15;;;;;;;30.00;25.60;;;6.40;1.00;7.50;100942.00;;;;4941452;29;20475;-82
2021/11/07 03:37:55;;;;;;;30.60;25.40;;;6.40;1.00;7.50;100944.00;;;;4942207;29;20607;-80
2021/11/07 03:40:27;;;;;;;29.00;25.50;;;6.50;1.00;7.30;100879.00;;;;4941860;29;21522;-78
2021/11/07 03:42:56;;;;;;;28.63;22.70;;;6.50;1.00;7.40;100954.00;;;;4937413;29;20876;-79
2021/11/07 03:45:27;;;;;;;27.00;23.97;;;6.40;1.00;7.30;100935.00;;;;4943624;29;20460;-78
2021/11/07 03:48:00;;;;;;;28.20;24.50;;;6.40;1.00;7.30;100895.00;;;;4946809;29;20540;-83
2021/11/07 03:50:30;;;;;;;28.60;23.20;;;6.40;1.00;7.20;100885.00;;;;4956018;29;20473;-80
2021/11/07 03:52:59;;;;;;;27.80;24.13;;;6.40;1.00;7.00;100911.00;;;;4927101;29;20519;-80
2021/11/07 03:55:29;;;;;;;31.57;24.97;;;6.30;1.00;7.30;100908.00;;;;4938035;29;20449;-82
2021/11/07 03:57:57;;;;;;;29.10;24.27;;;6.30;1.00;7.30;100854.00;;;;4938457;29;20472;-77
2021/11/07 04:00:26;;;;;;;26.40;23.47;;;6.30;1.00;7.30;100893.00;;;;4935967;29;20489;-78
2021/11/07 04:02:56;;;;;;;25.57;22.37;;;6.40;1.00;7.10;100915.00;;;;4938693;29;20461;-78
2021/11/07 04:05:25;;;;;;;24.83;21.73;;;6.40;1.00;7.20;100865.00;;;;4930037;29;20463;-78
2021/11/07 04:07:54;;;;;;;25.43;21.90;;;6.40;1.00;7.30;100869.00;;;;4937329;29;20536;-78
2021/11/07 04:10:22;;;;;;;24.30;21.80;;;6.40;1.00;7.30;100917.00;;;;4935294;29;21020;-79
2021/11/07 04:12:52;;;;;;;27.97;22.10;;;6.40;1.00;7.30;100896.00;;;;4937903;29;20456;-79
2021/11/07 04:15:21;;;;;;;23.50;21.10;;;6.40;1.00;7.30;100894.00;;;;4922170;29;20461;-78
2021/11/07 04:17:50;;;;;;;24.60;22.00;;;6.40;1.00;7.30;100917.00;;;;4937158;29;22069;-78
2021/11/07 04:20:19;;;;;;;23.60;21.10;;;6.40;1.00;7.40;100853.00;;;;4935955;29;20484;-79
2021/11/07 04:22:48;;;;;;;24.83;21.60;;;6.40;1.00;7.40;100897.00;;;;4936505;29;20448;-77
2021/11/07 04:25:17;;;;;;;25.43;22.13;;;6.50;1.00;7.20;100854.00;;;;4937993;29;20459;-81
2021/11/07 04:27:46;;;;;;;24.80;22.20;;;6.50;1.00;7.50;100859.00;;;;4938340;28;20468;-78
2021/11/07 04:30:16;;;;;;;25.17;21.83;;;6.50;1.00;7.50;100843.00;;;;4945283;29;20501;-79
2021/11/07 04:32:45;;;;;;;24.40;21.27;;;6.50;1.00;7.40;100854.00;;;;4940913;29;20457;-78
2021/11/07 04:35:14;;;;;;;24.90;20.23;;;6.50;1.00;7.30;100873.00;;;;4944410;29;20448;-80
2021/11/07 04:37:44;;;;;;;22.47;19.90;;;6.40;1.00;7.20;100856.00;;;;4942811;29;20476;-79
2021/11/07 04:40:15;;;;;;;24.53;21.40;;;6.40;1.00;7.20;100844.00;;;;4924198;29;20488;-78
2021/11/07 04:42:47;;;;;;;25.10;21.33;;;6.40;1.00;7.10;100836.00;;;;4944098;29;20481;-81
2021/11/07 04:45:17;;;;;;;26.00;21.60;;;6.30;1.00;7.10;100843.00;;;;4944418;29;20460;-81
2021/11/07 04:47:47;;;;;;;22.40;17.83;;;6.30;1.00;7.00;100829.00;;;;4945819;29;20974;-80
2021/11/07 04:50:19;;;;;;;23.87;20.90;;;6.20;1.00;7.00;100816.00;;;;4946183;29;20484;-82
2021/11/07 04:52:49;;;;;;;25.27;22.10;;;6.20;1.00;7.00;100827.00;;;;4943084;29;20473;-79
2021/11/07 04:55:18;;;;;;;24.90;22.20;;;6.10;1.00;6.80;100827.00;;;;4945652;29;20978;-79
2021/11/07 04:57:47;;;;;;;24.67;19.20;;;6.10;1.00;7.00;100804.00;;;;4947487;29;21048;-77
2021/11/07 05:00:21;;;;;;;21.30;18.60;;;6.10;1.00;7.00;100795.00;;;;4947863;29;20514;-79
2021/11/07 05:02:51;;;;;;;25.97;22.40;;;6.10;1.00;7.00;100790.00;;;;4947699;29;20456;-82
2021/11/07 05:05:22;;;;;;;23.00;20.47;;;6.20;1.00;7.00;100778.00;;;;4945559;29;20455;-82
2021/11/07 05:07:52;;;;;;;23.47;20.40;;;6.20;1.00;7.00;100778.00;;;;4945492;29;20462;-82
2021/11/07 05:10:20;;;;;;;23.60;20.10;;;6.20;1.00;7.10;100797.00;;;;4948472;29;20505;-81
2021/11/07 05:12:49;;;;;;;24.27;21.53;;;6.20;1.00;7.10;100779.00;;;;4928729;29;20515;-80
2021/11/07 05:15:19;;;;;;;23.40;19.53;;;6.30;1.00;7.00;100769.00;;;;4943788;29;20468;-80
2021/11/07 05:17:48;;;;;;;22.20;19.00;;;6.30;1.00;7.20;100763.00;;;;4944394;29;20905;-82
2021/11/07 05:20:17;;;;;;;26.17;21.23;;;6.40;1.00;7.20;100757.00;;;;4938755;29;20483;-80
2021/11/07 05:22:46;;;;;;;21.13;18.80;;;6.40;1.00;7.30;100739.00;;;;4944108;29;20966;-79
2021/11/07 05:25:15;;;;;;;22.77;18.73;;;6.40;1.00;7.30;100806.00;;;;4944755;29;20989;-79
2021/11/07 05:27:44;;;;;;;24.10;21.33;;;6.40;1.00;7.30;100792.00;;;;4927445;29;20495;-78
2021/11/07 05:30:15;;;;;;;25.00;21.37;;;6.40;1.00;7.30;100786.00;;;;4940293;29;20511;-80
2021/11/07 05:32:46;;;;;;;26.70;20.90;;;6.40;1.00;7.20;100788.00;;;;4941826;29;20949;-78
2021/11/07 05:35:19;;;;;;;22.00;19.53;;;6.40;1.00;7.30;100773.00;;;;4937672;29;20466;-80
2021/11/07 05:37:48;;;;;;;25.57;20.43;;;6.40;1.00;7.30;100754.00;;;;4942309;29;20855;-78
2021/11/07 05:40:17;;;;;;;24.30;19.97;;;6.40;1.00;7.20;100781.00;;;;4940131;29;20501;-78
2021/11/07 05:42:47;;;;;;;23.57;19.90;;;6.40;1.00;7.30;100760.00;;;;4943808;29;20517;-79
2021/11/07 05:45:16;;;;;;;25.10;20.60;;;6.40;1.00;7.20;100766.00;;;;4942278;29;20463;-81
2021/11/07 05:47:48;;;;;;;21.90;19.53;;;6.40;1.00;7.30;100744.00;;;;4942860;29;20461;-79
2021/11/07 05:50:18;;;;;;;23.10;20.30;;;6.50;1.00;7.30;100775.00;;;;4944546;29;22045;-79
2021/11/07 05:52:46;;;;;;;23.47;20.93;;;6.50;1.00;7.30;100768.00;;;;4942469;29;20962;-79
2021/11/07 05:55:14;;;;;;;23.03;19.60;;;6.50;1.00;7.30;100728.00;;;;4923177;29;20469;-78
2021/11/07 05:57:44;;;;;;;23.70;20.90;;;6.50;1.00;7.40;100749.00;;;;4939251;29;20476;-80
2021/11/07 06:00:16;;;;;;;25.57;19.87;;;6.50;1.00;7.40;100731.00;;;;4937429;29;20489;-78
2021/11/07 06:02:47;;;;;;;23.93;18.80;;;6.50;1.00;7.40;100747.00;;;;4939458;29;20516;-80
2021/11/07 06:05:18;;;;;;;23.43;20.87;;;6.50;1.00;7.50;100746.00;;;;4936721;29;20493;-80
2021/11/07 06:07:47;;;;;;;26.13;21.67;;;6.60;1.00;7.40;100719.00;;;;4933636;29;20462;-79
2021/11/07 06:10:16;;;;;;;25.33;19.97;;;6.60;1.00;7.40;100734.00;;;;4939976;29;21007;-82
2021/11/07 06:12:45;;;;;;;23.80;21.20;;;6.50;1.00;7.40;100735.00;;;;4908194;29;20466;-80
2021/11/07 06:15:13;;;;;;;23.93;19.50;;;6.60;1.00;7.40;100728.00;;;;4933907;29;20464;-80
2021/11/07 06:17:41;;;;;;;24.63;20.80;;;6.60;1.00;7.40;100702.00;;;;4936950;29;20876;-82
2021/11/07 06:20:12;;;;;;;26.93;21.10;;;6.60;1.00;7.40;100706.00;;;;4935097;29;20473;-79
2021/11/07 06:22:41;;;;;;;25.10;20.67;;;6.60;1.00;7.50;100751.00;;;;4938036;29;20457;-82
2021/11/07 06:25:10;;;;;;;24.67;21.57;;;6.60;1.00;7.50;100714.00;;;;4929330;29;21139;-81
2021/11/07 06:27:38;;;;;;;27.37;21.17;;;6.70;1.00;7.50;100738.00;;;;4933745;29;20471;-81
2021/11/07 06:30:09;;;;;;;24.87;20.40;;;6.70;1.00;7.60;100699.00;;;;4934060;29;20484;-81
2021/11/07 06:32:38;;;;;;;25.37;21.30;;;6.70;1.00;7.60;100692.00;;;;4937248;29;20454;-77
2021/11/07 06:35:12;;;;;;;18.80;15.97;;;6.70;1.00;7.40;100721.00;;;;4934582;29;20552;-79
2021/11/07 06:37:42;;;;;;;28.53;23.10;;;6.70;1.00;7.50;100688.00;;;;4938582;29;20490;-82
2021/11/07 06:40:12;;;;;;;23.50;20.67;;;6.60;1.00;7.50;100734.00;;;;4955093;29;20509;-78
2021/11/07 06:42:41;;;;;;;23.97;19.83;;;6.60;1.00;7.50;100726.00;;;;4955018;29;20450;-82
2021/11/07 06:45:10;;;;;;;25.90;23.10;;;6.60;1.00;7.50;100699.00;;;;4957865;29;20457;-81
2021/11/07 06:47:39;;;;;;;25.27;21.83;;;6.60;1.00;7.40;100738.00;;;;4960565;29;20535;-80
2021/11/07 06:50:12;;;;;;;26.37;21.97;;;6.60;1.00;7.50;100699.00;;;;4945016;29;20477;-77
2021/11/07 06:52:41;;;;;;;26.00;21.93;;;6.60;1.00;7.50;100705.00;;;;4936097;29;20461;-77
2021/11/07 06:55:11;;;;;;;27.83;23.40;;;6.70;1.00;7.60;100745.00;;;;4938462;29;20445;-77
2021/11/07 06:57:40;;;;;;;25.73;21.93;;;6.60;1.00;7.60;100722.00;;;;4942332;29;20453;-78
2021/11/07 07:00:13;;;;;;;25.00;22.30;;;6.70;1.00;7.60;100741.00;;;;4938747;29;20490;-79
2021/11/07 07:02:43;;;;;;;27.57;22.80;;;6.70;1.00;7.70;100749.00;;;;4937679;29;20465;-78
2021/11/07 07:05:16;;;;;;;30.27;22.83;;;6.70;1.00;7.70;100750.00;;;;4937923;29;20461;-78
2021/11/07 07:07:48;;;;;;;29.47;22.60;;;6.80;1.00;7.60;100737.00;;;;4935378;29;20457;-77
2021/11/07 07:10:22;;;;;;;28.53;22.90;;;6.80;1.00;7.60;100698.00;;;;4936712;29;20481;-78
2021/11/07 07:12:56;;;;;;;26.40;22.97;;;6.70;1.00;7.60;100701.00;;;;4939073;29;21385;-79
2021/11/07 07:15:28;;;;;;;28.10;23.20;;;6.70;1.00;7.60;100718.00;;;;4935477;29;20465;-77
2021/11/07 07:18:06;;;;;;;26.70;22.53;;;6.70;1.00;7.60;100674.00;;;;4940396;29;20472;-80
2021/11/07 07:20:48;;;;;;;25.07;20.73;;;6.70;1.00;7.70;100699.00;;;;4951664;29;20480;-80
2021/11/07 07:23:55;;;;;;;26.30;23.13;;;6.80;1.00;7.70;100672.00;;;;4935688;29;20484;-78
2021/11/07 07:29:27;;;;;;;24.43;20.20;;;6.90;1.00;7.80;100710.00;;;;4936796;29;20468;-81
2021/11/07 07:34:41;;;;;;;24.10;20.80;;;7.00;1.00;7.90;100731.00;;;;4934372;29;20590;-78
2021/11/07 07:37:11;;;;;;;23.13;20.70;;;7.10;1.00;7.90;100723.00;;;;4938637;29;20496;-80
2021/11/07 07:39:40;;;;;;;27.57;19.80;;;7.00;1.00;7.80;100679.00;;;;4934650;29;20488;-78
2021/11/07 07:42:09;;;;;;;21.30;19.00;;;7.10;1.00;8.10;100714.00;;;;4935349;29;20886;-79
2021/11/07 07:44:38;;;;;;;25.57;20.77;;;7.10;1.00;8.00;100712.00;;;;4935120;29;20457;-79
2021/11/07 07:47:07;;;;;;;22.43;20.03;;;7.10;1.00;8.00;100713.00;;;;4935756;29;20468;-80
2021/11/07 07:49:35;;;;;;;23.57;18.87;;;7.10;1.00;8.00;100723.00;;;;4934424;29;20484;-76
2021/11/07 07:52:04;;;;;;;22.20;18.93;;;7.10;1.00;8.00;100724.00;;;;4933556;29;20543;-78
2021/11/07 07:54:34;;;;;;;24.47;19.73;;;7.10;1.00;7.90;100713.00;;;;4932502;29;20463;-77
2021/11/07 07:57:02;;;;;;;24.20;19.87;;;7.10;1.00;7.90;100725.00;;;;4933798;29;20485;-79
2021/11/07 07:59:31;;;;;;;26.57;21.20;;;7.00;1.00;7.90;100720.00;;;;4936670;29;20607;-78
2021/11/07 08:01:59;;;;;;;28.23;22.37;;;7.00;1.00;7.90;100730.00;;;;4936544;29;20465;-77
2021/11/07 08:04:28;;;;;;;26.10;22.80;;;7.00;1.00;7.90;100742.00;;;;4935272;29;20467;-82
2021/11/07 08:06:57;;;;;;;27.60;22.47;;;7.00;1.00;7.90;100748.00;;;;4938736;29;20481;-80
2021/11/07 08:09:26;;;;;;;23.63;20.90;;;7.00;1.00;7.90;100677.00;;;;4938271;29;20612;-83
2021/11/07 08:11:56;;;;;;;27.77;22.33;;;7.00;1.00;7.90;100721.00;;;;4940064;29;20461;-79
2021/11/07 08:14:25;;;;;;;28.63;22.47;;;7.00;1.00;7.90;100729.00;;;;4940745;29;20957;-79
2021/11/07 08:16:57;;;;;;;27.17;21.93;;;7.00;1.00;7.90;100721.00;;;;4935941;29;20490;-83
2021/11/07 08:19:26;;;;;;;28.80;22.67;;;7.00;1.00;7.90;100665.00;;;;4935026;29;21002;-79
2021/11/07 08:21:55;;;;;;;27.53;22.37;;;7.00;1.00;7.90;100725.00;;;;4921540;29;20913;-79
2021/11/07 08:24:24;;;;;;;28.20;23.50;;;7.00;1.00;7.90;100680.00;;;;4944618;29;20460;-81
2021/11/07 08:26:52;;;;;;;28.93;23.37;;;7.00;1.00;7.90;100716.00;;;;4955966;29;20447;-84
2021/11/07 08:29:22;;;;;;;31.43;23.50;;;7.00;1.00;7.90;100727.00;;;;4953928;29;20496;-80
2021/11/07 08:31:53;;;;;;;27.33;22.60;;;7.00;1.00;7.90;100689.00;;;;4951746;29;20472;-81
2021/11/07 08:34:27;;;;;;;28.07;22.13;;;7.00;1.00;7.90;100698.00;;;;4957813;29;20459;-84
2021/11/07 08:37:01;;;;;;;29.80;24.30;;;7.00;1.00;7.90;100718.00;;;;4958871;29;20450;-85
2021/11/07 08:39:33;;;;;;;31.40;23.47;;;7.00;1.00;7.90;100694.00;;;;4961263;29;20525;-84
2021/11/07 08:42:04;;;;;;;34.43;24.43;;;7.00;1.00;7.90;100694.00;;;;4964769;29;20528;-83
2021/11/07 09:01:34;;;;;;;23.47;20.80;;;6.90;1.00;7.80;100673.00;;;;4936535;29;20476;-81
2021/11/07 09:04:18;;;;;;;22.80;20.20;;;6.90;1.00;7.90;100720.00;;;;4942831;29;20519;-79
2021/11/07 09:07:00;;;;;;;21.53;18.47;;;7.00;1.00;7.90;100720.00;;;;4942532;29;20456;-80
2021/11/07 09:09:37;;;;;;;22.50;20.10;;;7.10;1.00;8.00;100729.00;;;;4940362;29;20708;-79
2021/11/07 09:12:08;;;;;;;23.73;18.00;;;7.10;1.00;7.70;100680.00;;;;4939018;29;20525;-79
2021/11/07 09:14:39;;;;;;;22.90;20.50;;;7.10;1.00;8.00;100676.00;;;;4942067;28;20530;-78
2021/11/07 09:17:13;;;;;;;21.90;19.60;;;7.10;1.00;8.00;100705.00;;;;4945493;29;20647;-79
2021/11/07 09:19:44;;;;;;;19.87;17.37;;;7.20;1.00;8.00;100709.00;;;;4927323;29;20855;-79
2021/11/07 09:22:16;;;;;;;21.67;18.70;;;7.20;1.00;8.00;100705.00;;;;4943915;29;20551;-78
2021/11/07 09:24:48;;;;;;;24.50;20.27;;;7.20;1.00;8.10;100692.00;;;;4944167;29;20540;-79
2021/11/07 09:27:22;;;;;;;20.07;17.93;;;7.20;1.00;8.10;100722.00;;;;4929288;29;20656;-80
2021/11/07 09:30:00;;;;;;;27.13;19.30;;;7.20;1.00;8.20;100685.00;;;;4940634;29;21100;-84
2021/11/07 09:32:41;;;;;;;19.83;17.73;;;7.20;1.00;8.20;100723.00;;;;4949454;29;20456;-78
2021/11/07 09:35:20;;;;;;;21.17;18.83;;;7.30;1.00;8.20;100706.00;;;;4929319;29;20456;-79
2021/11/07 09:37:52;;;;;;;23.00;18.83;;;7.40;1.00;8.20;100697.00;;;;4949098;29;20449;-80
2021/11/07 09:40:24;;;;;;;20.00;17.90;;;7.40;1.00;8.20;100708.00;;;;4951079;29;20488;-79
2021/11/07 09:43:09;;;;;;;21.43;18.90;;;7.40;1.00;8.30;100686.00;;;;4943200;29;20453;-81
2021/11/07 09:45:47;;;;;;;20.13;18.07;;;7.50;1.00;8.40;100680.00;;;;4944341;29;20456;-79
2021/11/07 09:48:21;;;;;;;22.17;18.50;;;7.50;1.00;8.40;100668.00;;;;4943756;29;20556;-81
2021/11/07 09:50:52;;;;;;;18.73;16.90;;;7.60;1.00;8.50;100664.00;;;;4946881;29;20488;-81
2021/11/07 09:53:22;;;;;;;20.80;18.57;;;7.80;1.00;8.40;100641.00;;;;4941603;29;20940;-80
2021/11/07 09:55:52;;;;;;;21.13;18.93;;;7.60;1.00;8.50;100670.00;;;;4931372;29;20454;-80
2021/11/07 09:58:21;;;;;;;20.10;18.00;;;7.60;1.00;8.40;100656.00;;;;4927831;29;20892;-82
2021/11/07 10:00:54;;;;;;;20.10;17.90;;;7.80;1.00;8.50;100676.00;;;;4944820;29;20938;-80
2021/11/07 10:03:26;;;;;;;19.30;17.30;;;7.70;1.00;8.60;100667.00;;;;4946120;29;20464;-81
2021/11/07 10:05:58;;;;;;;19.73;17.47;;;7.70;1.00;8.60;100685.00;;;;4947150;29;20460;-81
2021/11/07 10:08:27;;;;;;;19.43;15.83;;;7.70;1.00;8.20;100690.00;;;;4952608;28;21341;-80
2021/11/07 10:11:01;;;;;;;18.27;16.33;;;7.80;1.00;8.60;100684.00;;;;4952986;29;20548;-80
2021/11/07 10:13:33;;;;;;;17.80;15.83;;;7.80;1.00;8.60;100629.00;;;;4953580;29;20457;-79
2021/11/07 10:16:09;;;;;;;18.40;16.47;;;7.90;1.00;8.70;100685.00;;;;4952159;29;20467;-79
2021/11/07 10:18:45;;;;;;;16.60;14.70;;;7.90;1.00;8.70;100690.00;;;;4948483;29;20456;-79
2021/11/07 10:21:18;;;;;;;15.50;13.80;;;7.80;1.00;8.70;100698.00;;;;4949610;29;20495;-80
2021/11/07 10:23:50;;;;;;;16.43;14.77;;;7.90;1.00;8.80;100694.00;;;;4945953;29;20480;-80
2021/11/07 10:26:22;;;;;;;16.98;15.18;;;7.90;1.00;8.90;100658.00;;;;4927157;29;20451;-78
2021/11/07 10:28:55;;;;;;;17.40;13.93;;;8.10;1.00;8.90;100689.00;;;;4955077;29;20209;-79
2021/11/07 10:31:29;;;;;;;14.83;13.33;;;8.20;1.00;9.10;100664.00;;;;4947418;29;20460;-75
2021/11/07 10:34:21;;;;;;;14.03;12.63;;;8.20;1.00;9.10;100661.00;;;;4961108;29;20452;-76
2021/11/07 10:40:06;;;;;;;12.97;11.60;;;8.30;1.00;9.20;100664.00;;;;4942591;29;21052;-78
2021/11/07 10:43:02;;;;;;;13.30;11.90;;;8.30;1.00;9.30;100669.00;;;;4940058;29;20453;-77
2021/11/07 10:45:57;;;;;;;13.03;11.77;;;8.40;1.00;9.30;100676.00;;;;4940406;29;20438;-78
2021/11/07 10:54:16;;;;;;;10.50;9.47;;;8.60;1.00;9.60;100679.00;;;;4941126;29;20532;-77
2021/11/07 10:56:47;;;;;;;10.67;9.67;;;8.70;1.00;9.50;100646.00;;;;4936428;29;20601;-78
2021/11/07 10:59:18;;;;;;;10.90;9.90;;;8.70;1.00;9.60;100659.00;;;;4921487;29;20465;-77
2021/11/07 11:01:48;;;;;;;10.37;8.10;;;8.70;1.00;9.60;100673.00;;;;4939599;29;20476;-77
2021/11/07 11:04:17;;;;;;;9.63;8.70;;;8.70;1.00;9.70;100677.00;;;;4936260;29;20552;-77
2021/11/07 11:06:57;;;;;;;8.80;7.90;;;8.70;1.00;9.70;100655.00;;;;4932656;29;20469;-79
2021/11/07 11:09:27;;;;;;;9.27;7.50;;;8.90;1.00;10.00;100634.00;;;;4937628;29;20543;-79
2021/11/07 11:12:09;;;;;;;8.30;7.50;;;9.10;1.00;10.20;100628.00;;;;4937159;29;20468;-77
2021/11/07 11:14:42;;;;;;;8.20;6.70;;;9.20;1.00;10.30;100618.00;;;;4936133;29;20456;-77
2021/11/07 11:17:22;;;;;;;7.67;6.93;;;9.30;1.00;10.20;100623.00;;;;4926919;29;20548;-79
2021/11/07 11:20:00;;;;;;;7.53;6.30;;;9.50;1.00;10.60;100634.00;;;;4934681;29;21434;-77
2021/11/07 11:22:37;;;;;;;6.20;5.60;;;9.60;1.00;10.50;100615.00;;;;4943985;29;20456;-77
2021/11/07 11:28:13;;;;;;;5.57;5.07;;;9.60;1.00;10.50;100616.00;;;;4945548;29;20469;-78
2021/11/07 11:33:32;;;;;;;6.03;5.50;;;9.80;1.00;11.00;100628.00;;;;4929352;29;20471;-77
2021/11/07 11:36:13;;;;;;;5.20;4.70;;;9.90;1.00;11.10;100635.00;;;;4938959;29;20512;-76
2021/11/07 11:38:48;;;;;;;5.33;4.67;;;10.00;1.00;11.00;100623.00;;;;4938954;28;20461;-77
2021/11/07 11:41:22;;;;;;;5.90;4.03;;;10.00;1.00;10.90;100596.00;;;;4935411;29;20484;-78
2021/11/07 11:43:52;;;;;;;4.20;3.80;;;10.10;1.00;11.20;100614.00;;;;4935270;29;20493;-78
2021/11/07 11:46:31;;;;;;;4.60;3.57;;;10.20;1.00;11.30;100606.00;;;;4920642;29;21333;-77
2021/11/07 11:54:57;;;;;;;3.73;3.33;;;10.10;1.00;11.10;100621.00;;;;4937461;29;20832;-77
2021/11/07 11:57:44;;;;;;;2.90;2.70;;;10.10;1.00;11.00;100621.00;;;;4938833;29;20535;-77
2021/11/07 12:00:31;;;;;;;3.33;2.93;;;10.10;1.00;10.80;100598.00;;;;4938326;29;20963;-78
2021/11/07 12:03:05;;;;;;;3.80;3.17;;;10.00;1.00;10.80;100609.00;;;;4930903;29;20453;-79